sensor_id;sensor_type;location;lat;lon;timestamp;P1;durP1;ratioP1;P2;durP2;ratioP2
8319;SDS011;4197;42.130;24.746;2023-12-20T00:01:49;29.40;;;19.10;;
8319;SDS011;4197;42.130;24.746;2023-12-20T00:04:18;26.83;;;18.10;;
8319;SDS011;4197;42.130;24.746;2023-12-20T00:06:46;29.30;;;18.03;;
8319;SDS011;4197;42.130;24.746;2023-12-20T00:09:19;27.43;;;18.07;;
8319;SDS011;4197;42.130;24.746;2023-12-20T00:11:47;30.43;;;19.27;;
8319;SDS011;4197;42.130;24.746;2023-12-20T00:14:16;28.47;;;18.20;;
8319;SDS011;4197;42.130;24.746;2023-12-20T00:16:44;32.80;;;20.30;;
8319;SDS011;4197;42.130;24.746;2023-12-20T00:19:12;32.37;;;20.43;;
8319;SDS011;4197;42.130;24.746;2023-12-20T00:21:41;32.43;;;20.67;;
8319;SDS011;4197;42.130;24.746;2023-12-20T00:24:09;32.17;;;20.23;;
8319;SDS011;4197;42.130;24.746;2023-12-20T00:26:39;34.07;;;20.17;;
8319;SDS011;4197;42.130;24.746;2023-12-20T00:29:08;30.33;;;19.20;;
8319;SDS011;4197;42.130;24.746;2023-12-20T00:31:36;29.10;;;19.00;;
8319;SDS011;4197;42.130;24.746;2023-12-20T00:34:04;30.77;;;19.43;;
8319;SDS011;4197;42.130;24.746;2023-12-20T00:36:33;28.97;;;20.00;;
8319;SDS011;4197;42.130;24.746;2023-12-20T00:39:01;30.97;;;19.10;;
8319;SDS011;4197;42.130;24.746;2023-12-20T00:41:30;27.00;;;18.17;;
8319;SDS011;4197;42.130;24.746;2023-12-20T00:43:59;31.00;;;19.90;;
8319;SDS011;4197;42.130;24.746;2023-12-20T00:46:28;31.07;;;18.83;;
8319;SDS011;4197;42.130;24.746;2023-12-20T00:48:56;34.50;;;21.80;;
8319;SDS011;4197;42.130;24.746;2023-12-20T00:51:24;30.30;;;20.27;;
8319;SDS011;4197;42.130;24.746;2023-12-20T00:53:53;30.97;;;20.47;;
8319;SDS011;4197;42.130;24.746;2023-12-20T00:56:21;30.63;;;19.93;;
8319;SDS011;4197;42.130;24.746;2023-12-20T00:58:50;31.27;;;20.13;;
8319;SDS011;4197;42.130;24.746;2023-12-20T01:01:20;30.53;;;20.77;;
8319;SDS011;4197;42.130;24.746;2023-12-20T01:03:49;32.10;;;21.03;;
8319;SDS011;4197;42.130;24.746;2023-12-20T01:06:18;29.63;;;20.13;;
8319;SDS011;4197;42.130;24.746;2023-12-20T01:08:46;32.73;;;21.83;;
8319;SDS011;4197;42.130;24.746;2023-12-20T01:11:15;29.77;;;20.40;;
8319;SDS011;4197;42.130;24.746;2023-12-20T01:13:43;30.57;;;19.27;;
8319;SDS011;4197;42.130;24.746;2023-12-20T01:16:11;31.10;;;19.37;;
8319;SDS011;4197;42.130;24.746;2023-12-20T01:18:41;32.37;;;19.63;;
8319;SDS011;4197;42.130;24.746;2023-12-20T01:21:09;28.10;;;19.40;;
8319;SDS011;4197;42.130;24.746;2023-12-20T01:23:38;28.23;;;18.93;;
8319;SDS011;4197;42.130;24.746;2023-12-20T01:26:06;29.30;;;19.50;;
8319;SDS011;4197;42.130;24.746;2023-12-20T01:28:35;35.50;;;21.87;;
8319;SDS011;4197;42.130;24.746;2023-12-20T01:31:03;44.00;;;29.93;;
8319;SDS011;4197;42.130;24.746;2023-12-20T01:33:32;48.63;;;29.10;;
8319;SDS011;4197;42.130;24.746;2023-12-20T01:36:03;33.80;;;22.73;;
8319;SDS011;4197;42.130;24.746;2023-12-20T01:38:31;46.93;;;28.23;;
8319;SDS011;4197;42.130;24.746;2023-12-20T01:41:00;35.77;;;22.37;;
8319;SDS011;4197;42.130;24.746;2023-12-20T01:43:29;36.77;;;20.27;;
8319;SDS011;4197;42.130;24.746;2023-12-20T01:46:12;36.73;;;22.10;;
8319;SDS011;4197;42.130;24.746;2023-12-20T01:48:42;33.93;;;19.43;;
8319;SDS011;4197;42.130;24.746;2023-12-20T01:51:12;29.90;;;18.90;;
8319;SDS011;4197;42.130;24.746;2023-12-20T01:53:41;28.73;;;19.73;;
8319;SDS011;4197;42.130;24.746;2023-12-20T01:56:10;28.50;;;18.30;;
8319;SDS011;4197;42.130;24.746;2023-12-20T01:58:41;32.57;;;19.23;;
8319;SDS011;4197;42.130;24.746;2023-12-20T02:01:13;25.60;;;18.80;;
8319;SDS011;4197;42.130;24.746;2023-12-20T02:03:42;30.27;;;19.73;;
8319;SDS011;4197;42.130;24.746;2023-12-20T02:06:12;30.50;;;19.13;;
8319;SDS011;4197;42.130;24.746;2023-12-20T02:08:41;31.97;;;18.83;;
8319;SDS011;4197;42.130;24.746;2023-12-20T02:11:09;28.43;;;17.87;;
8319;SDS011;4197;42.130;24.746;2023-12-20T02:13:37;28.23;;;18.63;;
8319;SDS011;4197;42.130;24.746;2023-12-20T02:16:05;29.77;;;18.10;;
8319;SDS011;4197;42.130;24.746;2023-12-20T02:18:34;29.20;;;17.93;;
8319;SDS011;4197;42.130;24.746;2023-12-20T02:21:04;28.47;;;18.20;;
8319;SDS011;4197;42.130;24.746;2023-12-20T02:23:34;35.73;;;20.40;;
8319;SDS011;4197;42.130;24.746;2023-12-20T02:26:02;36.07;;;21.93;;
8319;SDS011;4197;42.130;24.746;2023-12-20T02:28:33;30.13;;;19.63;;
8319;SDS011;4197;42.130;24.746;2023-12-20T02:31:02;31.93;;;20.43;;
8319;SDS011;4197;42.130;24.746;2023-12-20T02:33:31;34.00;;;21.43;;
8319;SDS011;4197;42.130;24.746;2023-12-20T02:35:59;25.10;;;17.33;;
8319;SDS011;4197;42.130;24.746;2023-12-20T02:38:28;24.07;;;16.10;;
8319;SDS011;4197;42.130;24.746;2023-12-20T02:40:57;25.33;;;16.77;;
8319;SDS011;4197;42.130;24.746;2023-12-20T02:43:26;26.47;;;17.07;;
8319;SDS011;4197;42.130;24.746;2023-12-20T02:45:57;26.13;;;17.03;;
8319;SDS011;4197;42.130;24.746;2023-12-20T02:48:25;29.80;;;19.03;;
8319;SDS011;4197;42.130;24.746;2023-12-20T02:50:54;25.80;;;17.83;;
8319;SDS011;4197;42.130;24.746;2023-12-20T02:53:23;21.77;;;16.73;;
8319;SDS011;4197;42.130;24.746;2023-12-20T02:55:51;22.97;;;17.43;;
8319;SDS011;4197;42.130;24.746;2023-12-20T02:58:21;25.37;;;17.23;;
8319;SDS011;4197;42.130;24.746;2023-12-20T03:00:50;25.43;;;17.87;;
8319;SDS011;4197;42.130;24.746;2023-12-20T03:03:19;30.20;;;19.27;;
8319;SDS011;4197;42.130;24.746;2023-12-20T03:05:47;28.30;;;18.50;;
8319;SDS011;4197;42.130;24.746;2023-12-20T03:08:15;29.60;;;19.43;;
8319;SDS011;4197;42.130;24.746;2023-12-20T03:10:44;31.20;;;19.50;;
8319;SDS011;4197;42.130;24.746;2023-12-20T03:13:12;27.37;;;18.30;;
8319;SDS011;4197;42.130;24.746;2023-12-20T03:15:42;25.83;;;17.47;;
8319;SDS011;4197;42.130;24.746;2023-12-20T03:18:10;26.07;;;18.57;;
8319;SDS011;4197;42.130;24.746;2023-12-20T03:20:39;28.13;;;20.17;;
8319;SDS011;4197;42.130;24.746;2023-12-20T03:23:08;25.97;;;17.70;;
8319;SDS011;4197;42.130;24.746;2023-12-20T03:25:36;25.17;;;16.83;;
8319;SDS011;4197;42.130;24.746;2023-12-20T03:28:05;26.20;;;17.57;;
8319;SDS011;4197;42.130;24.746;2023-12-20T03:30:33;21.33;;;16.03;;
8319;SDS011;4197;42.130;24.746;2023-12-20T03:33:03;20.93;;;14.77;;
8319;SDS011;4197;42.130;24.746;2023-12-20T03:35:32;22.63;;;15.10;;
8319;SDS011;4197;42.130;24.746;2023-12-20T03:38:00;21.17;;;13.70;;
8319;SDS011;4197;42.130;24.746;2023-12-20T03:40:28;20.07;;;13.50;;
8319;SDS011;4197;42.130;24.746;2023-12-20T03:42:57;20.13;;;12.70;;
8319;SDS011;4197;42.130;24.746;2023-12-20T03:45:25;21.50;;;13.33;;
8319;SDS011;4197;42.130;24.746;2023-12-20T03:47:54;17.97;;;12.73;;
8319;SDS011;4197;42.130;24.746;2023-12-20T03:50:24;20.40;;;15.33;;
8319;SDS011;4197;42.130;24.746;2023-12-20T03:52:53;23.57;;;16.30;;
8319;SDS011;4197;42.130;24.746;2023-12-20T03:55:22;24.03;;;17.13;;
8319;SDS011;4197;42.130;24.746;2023-12-20T03:57:50;35.37;;;22.80;;
8319;SDS011;4197;42.130;24.746;2023-12-20T04:00:19;29.97;;;21.00;;
8319;SDS011;4197;42.130;24.746;2023-12-20T04:02:47;25.73;;;18.50;;
8319;SDS011;4197;42.130;24.746;2023-12-20T04:05:15;31.27;;;20.43;;
8319;SDS011;4197;42.130;24.746;2023-12-20T04:07:45;27.77;;;19.80;;
8319;SDS011;4197;42.130;24.746;2023-12-20T04:10:13;24.90;;;17.07;;
8319;SDS011;4197;42.130;24.746;2023-12-20T04:12:42;24.30;;;17.00;;
8319;SDS011;4197;42.130;24.746;2023-12-20T04:15:10;26.63;;;18.80;;
8319;SDS011;4197;42.130;24.746;2023-12-20T04:17:39;27.10;;;18.20;;
8319;SDS011;4197;42.130;24.746;2023-12-20T04:20:07;30.07;;;18.63;;
8319;SDS011;4197;42.130;24.746;2023-12-20T04:22:36;29.93;;;20.43;;
8319;SDS011;4197;42.130;24.746;2023-12-20T04:25:06;33.87;;;23.10;;
8319;SDS011;4197;42.130;24.746;2023-12-20T04:27:36;33.53;;;21.37;;
8319;SDS011;4197;42.130;24.746;2023-12-20T04:30:05;37.50;;;24.77;;
8319;SDS011;4197;42.130;24.746;2023-12-20T04:32:34;45.37;;;29.03;;
8319;SDS011;4197;42.130;24.746;2023-12-20T04:35:03;38.47;;;25.37;;
8319;SDS011;4197;42.130;24.746;2023-12-20T04:37:32;34.00;;;23.80;;
8319;SDS011;4197;42.130;24.746;2023-12-20T04:40:00;34.67;;;23.77;;
8319;SDS011;4197;42.130;24.746;2023-12-20T04:42:30;32.53;;;21.80;;
8319;SDS011;4197;42.130;24.746;2023-12-20T04:44:58;31.93;;;20.83;;
8319;SDS011;4197;42.130;24.746;2023-12-20T04:47:26;30.37;;;20.77;;
8319;SDS011;4197;42.130;24.746;2023-12-20T04:49:55;31.30;;;21.67;;
8319;SDS011;4197;42.130;24.746;2023-12-20T04:52:24;35.63;;;23.50;;
8319;SDS011;4197;42.130;24.746;2023-12-20T04:54:53;32.07;;;21.00;;
8319;SDS011;4197;42.130;24.746;2023-12-20T04:57:21;32.10;;;23.10;;
8319;SDS011;4197;42.130;24.746;2023-12-20T04:59:51;32.80;;;23.43;;
8319;SDS011;4197;42.130;24.746;2023-12-20T05:02:20;34.30;;;22.90;;
8319;SDS011;4197;42.130;24.746;2023-12-20T05:04:49;36.07;;;23.10;;
8319;SDS011;4197;42.130;24.746;2023-12-20T05:07:20;36.10;;;24.60;;
8319;SDS011;4197;42.130;24.746;2023-12-20T05:09:49;38.67;;;23.67;;
8319;SDS011;4197;42.130;24.746;2023-12-20T05:12:17;36.10;;;22.53;;
8319;SDS011;4197;42.130;24.746;2023-12-20T05:14:45;36.90;;;22.23;;
8319;SDS011;4197;42.130;24.746;2023-12-20T05:17:15;35.57;;;23.20;;
8319;SDS011;4197;42.130;24.746;2023-12-20T05:19:44;31.93;;;21.87;;
8319;SDS011;4197;42.130;24.746;2023-12-20T05:22:12;34.10;;;21.47;;
8319;SDS011;4197;42.130;24.746;2023-12-20T05:24:40;30.60;;;20.97;;
8319;SDS011;4197;42.130;24.746;2023-12-20T05:27:09;30.37;;;21.53;;
8319;SDS011;4197;42.130;24.746;2023-12-20T05:29:37;35.90;;;23.20;;
8319;SDS011;4197;42.130;24.746;2023-12-20T05:32:06;35.33;;;23.27;;
8319;SDS011;4197;42.130;24.746;2023-12-20T05:34:36;34.90;;;23.97;;
8319;SDS011;4197;42.130;24.746;2023-12-20T05:37:04;36.17;;;23.87;;
8319;SDS011;4197;42.130;24.746;2023-12-20T05:39:33;35.90;;;24.10;;
8319;SDS011;4197;42.130;24.746;2023-12-20T05:42:01;37.63;;;24.77;;
8319;SDS011;4197;42.130;24.746;2023-12-20T05:44:29;41.87;;;26.37;;
8319;SDS011;4197;42.130;24.746;2023-12-20T05:46:58;37.73;;;25.30;;
8319;SDS011;4197;42.130;24.746;2023-12-20T05:49:26;35.27;;;24.13;;
8319;SDS011;4197;42.130;24.746;2023-12-20T05:51:56;35.07;;;25.70;;
8319;SDS011;4197;42.130;24.746;2023-12-20T05:54:24;33.03;;;22.73;;
8319;SDS011;4197;42.130;24.746;2023-12-20T05:56:53;36.17;;;24.83;;
8319;SDS011;4197;42.130;24.746;2023-12-20T05:59:21;37.87;;;25.40;;
8319;SDS011;4197;42.130;24.746;2023-12-20T06:01:50;34.93;;;24.30;;
8319;SDS011;4197;42.130;24.746;2023-12-20T06:04:19;34.93;;;24.40;;
8319;SDS011;4197;42.130;24.746;2023-12-20T06:06:49;36.70;;;25.10;;
8319;SDS011;4197;42.130;24.746;2023-12-20T06:09:19;33.53;;;23.53;;
8319;SDS011;4197;42.130;24.746;2023-12-20T06:11:47;37.30;;;26.07;;
8319;SDS011;4197;42.130;24.746;2023-12-20T06:14:16;33.37;;;23.60;;
8319;SDS011;4197;42.130;24.746;2023-12-20T06:16:45;35.93;;;23.43;;
8319;SDS011;4197;42.130;24.746;2023-12-20T06:19:13;39.77;;;27.63;;
8319;SDS011;4197;42.130;24.746;2023-12-20T06:21:42;37.37;;;24.83;;
8319;SDS011;4197;42.130;24.746;2023-12-20T06:24:11;33.03;;;23.87;;
8319;SDS011;4197;42.130;24.746;2023-12-20T06:26:40;31.17;;;22.20;;
8319;SDS011;4197;42.130;24.746;2023-12-20T06:29:09;34.50;;;22.80;;
8319;SDS011;4197;42.130;24.746;2023-12-20T06:31:37;31.50;;;21.90;;
8319;SDS011;4197;42.130;24.746;2023-12-20T06:34:06;37.07;;;24.73;;
8319;SDS011;4197;42.130;24.746;2023-12-20T06:36:34;40.57;;;26.53;;
8319;SDS011;4197;42.130;24.746;2023-12-20T06:39:02;36.67;;;24.50;;
8319;SDS011;4197;42.130;24.746;2023-12-20T06:41:31;50.97;;;30.17;;
8319;SDS011;4197;42.130;24.746;2023-12-20T06:44:01;35.97;;;25.37;;
8319;SDS011;4197;42.130;24.746;2023-12-20T06:46:30;32.80;;;23.93;;
8319;SDS011;4197;42.130;24.746;2023-12-20T06:48:58;34.60;;;22.97;;
8319;SDS011;4197;42.130;24.746;2023-12-20T06:51:26;43.33;;;28.23;;
8319;SDS011;4197;42.130;24.746;2023-12-20T06:53:57;47.70;;;30.37;;
8319;SDS011;4197;42.130;24.746;2023-12-20T06:56:26;42.97;;;28.43;;
8319;SDS011;4197;42.130;24.746;2023-12-20T06:58:54;37.63;;;25.33;;
8319;SDS011;4197;42.130;24.746;2023-12-20T07:01:25;39.50;;;27.23;;
8319;SDS011;4197;42.130;24.746;2023-12-20T07:03:53;35.03;;;23.87;;
8319;SDS011;4197;42.130;24.746;2023-12-20T07:06:21;34.40;;;23.80;;
8319;SDS011;4197;42.130;24.746;2023-12-20T07:08:52;36.40;;;25.40;;
8319;SDS011;4197;42.130;24.746;2023-12-20T07:11:21;32.70;;;22.10;;
8319;SDS011;4197;42.130;24.746;2023-12-20T07:13:49;37.77;;;21.43;;
8319;SDS011;4197;42.130;24.746;2023-12-20T07:16:18;31.60;;;20.47;;
8319;SDS011;4197;42.130;24.746;2023-12-20T07:18:47;35.80;;;22.57;;
8319;SDS011;4197;42.130;24.746;2023-12-20T07:21:16;28.63;;;19.70;;
8319;SDS011;4197;42.130;24.746;2023-12-20T07:23:44;37.00;;;21.07;;
8319;SDS011;4197;42.130;24.746;2023-12-20T07:26:13;26.13;;;17.67;;
8319;SDS011;4197;42.130;24.746;2023-12-20T07:28:41;23.23;;;17.03;;
8319;SDS011;4197;42.130;24.746;2023-12-20T07:31:09;25.33;;;17.70;;
8319;SDS011;4197;42.130;24.746;2023-12-20T07:33:38;26.50;;;16.77;;
8319;SDS011;4197;42.130;24.746;2023-12-20T07:36:08;21.70;;;15.57;;
8319;SDS011;4197;42.130;24.746;2023-12-20T07:38:36;19.23;;;14.13;;
8319;SDS011;4197;42.130;24.746;2023-12-20T07:41:05;25.63;;;15.80;;
8319;SDS011;4197;42.130;24.746;2023-12-20T07:43:33;22.73;;;15.27;;
8319;SDS011;4197;42.130;24.746;2023-12-20T07:46:04;21.57;;;14.00;;
8319;SDS011;4197;42.130;24.746;2023-12-20T07:48:32;22.27;;;15.20;;
8319;SDS011;4197;42.130;24.746;2023-12-20T07:51:00;20.97;;;13.67;;
8319;SDS011;4197;42.130;24.746;2023-12-20T07:53:30;26.83;;;17.73;;
8319;SDS011;4197;42.130;24.746;2023-12-20T07:55:58;22.70;;;15.60;;
8319;SDS011;4197;42.130;24.746;2023-12-20T07:58:27;18.83;;;14.40;;
8319;SDS011;4197;42.130;24.746;2023-12-20T08:01:16;19.57;;;14.17;;
8319;SDS011;4197;42.130;24.746;2023-12-20T08:03:46;22.37;;;15.63;;
8319;SDS011;4197;42.130;24.746;2023-12-20T08:06:14;23.70;;;16.27;;
8319;SDS011;4197;42.130;24.746;2023-12-20T08:08:45;22.90;;;16.57;;
8319;SDS011;4197;42.130;24.746;2023-12-20T08:11:24;26.27;;;20.00;;
8319;SDS011;4197;42.130;24.746;2023-12-20T08:13:52;21.27;;;16.03;;
8319;SDS011;4197;42.130;24.746;2023-12-20T08:16:21;24.03;;;16.10;;
8319;SDS011;4197;42.130;24.746;2023-12-20T08:18:50;21.00;;;15.33;;
8319;SDS011;4197;42.130;24.746;2023-12-20T08:21:19;19.53;;;15.47;;
8319;SDS011;4197;42.130;24.746;2023-12-20T08:23:50;25.00;;;16.47;;
8319;SDS011;4197;42.130;24.746;2023-12-20T08:26:18;23.17;;;16.60;;
8319;SDS011;4197;42.130;24.746;2023-12-20T08:28:49;21.80;;;17.57;;
8319;SDS011;4197;42.130;24.746;2023-12-20T08:31:18;23.97;;;17.67;;
8319;SDS011;4197;42.130;24.746;2023-12-20T08:33:48;24.30;;;17.83;;
8319;SDS011;4197;42.130;24.746;2023-12-20T08:36:17;26.87;;;20.23;;
8319;SDS011;4197;42.130;24.746;2023-12-20T08:38:49;31.80;;;22.57;;
8319;SDS011;4197;42.130;24.746;2023-12-20T08:41:18;26.23;;;18.03;;
8319;SDS011;4197;42.130;24.746;2023-12-20T08:43:47;24.13;;;17.43;;
8319;SDS011;4197;42.130;24.746;2023-12-20T08:46:15;27.90;;;19.90;;
8319;SDS011;4197;42.130;24.746;2023-12-20T08:48:44;24.47;;;17.80;;
8319;SDS011;4197;42.130;24.746;2023-12-20T08:51:13;26.27;;;19.83;;
8319;SDS011;4197;42.130;24.746;2023-12-20T08:53:41;24.37;;;18.77;;
8319;SDS011;4197;42.130;24.746;2023-12-20T08:56:13;24.87;;;18.03;;
8319;SDS011;4197;42.130;24.746;2023-12-20T08:58:42;28.60;;;19.90;;
8319;SDS011;4197;42.130;24.746;2023-12-20T09:01:10;25.27;;;18.23;;
8319;SDS011;4197;42.130;24.746;2023-12-20T09:03:39;26.10;;;18.83;;
8319;SDS011;4197;42.130;24.746;2023-12-20T09:06:08;26.43;;;20.07;;
8319;SDS011;4197;42.130;24.746;2023-12-20T09:08:37;27.37;;;19.83;;
8319;SDS011;4197;42.130;24.746;2023-12-20T09:11:06;30.57;;;19.87;;
8319;SDS011;4197;42.130;24.746;2023-12-20T09:13:36;28.80;;;19.13;;
8319;SDS011;4197;42.130;24.746;2023-12-20T09:16:05;27.10;;;17.97;;
8319;SDS011;4197;42.130;24.746;2023-12-20T09:18:34;25.63;;;18.43;;
8319;SDS011;4197;42.130;24.746;2023-12-20T09:21:03;24.57;;;17.50;;
8319;SDS011;4197;42.130;24.746;2023-12-20T09:23:32;25.97;;;17.40;;
8319;SDS011;4197;42.130;24.746;2023-12-20T09:26:01;25.80;;;16.40;;
8319;SDS011;4197;42.130;24.746;2023-12-20T09:28:31;20.10;;;15.37;;
8319;SDS011;4197;42.130;24.746;2023-12-20T09:31:05;32.67;;;20.67;;
8319;SDS011;4197;42.130;24.746;2023-12-20T09:33:34;22.07;;;15.87;;
8319;SDS011;4197;42.130;24.746;2023-12-20T09:36:03;27.60;;;18.50;;
8319;SDS011;4197;42.130;24.746;2023-12-20T09:38:33;25.77;;;17.70;;
8319;SDS011;4197;42.130;24.746;2023-12-20T09:41:01;19.77;;;14.57;;
8319;SDS011;4197;42.130;24.746;2023-12-20T09:43:31;24.07;;;16.17;;
8319;SDS011;4197;42.130;24.746;2023-12-20T09:46:06;22.70;;;16.03;;
8319;SDS011;4197;42.130;24.746;2023-12-20T09:48:37;21.80;;;15.63;;
8319;SDS011;4197;42.130;24.746;2023-12-20T09:51:06;21.53;;;16.30;;
8319;SDS011;4197;42.130;24.746;2023-12-20T09:53:35;19.50;;;14.00;;
8319;SDS011;4197;42.130;24.746;2023-12-20T09:56:07;19.27;;;14.27;;
8319;SDS011;4197;42.130;24.746;2023-12-20T09:58:36;15.37;;;12.00;;
8319;SDS011;4197;42.130;24.746;2023-12-20T10:01:07;15.50;;;11.27;;
8319;SDS011;4197;42.130;24.746;2023-12-20T10:03:36;13.67;;;10.07;;
8319;SDS011;4197;42.130;24.746;2023-12-20T10:06:09;18.50;;;12.43;;
8319;SDS011;4197;42.130;24.746;2023-12-20T10:08:38;16.93;;;12.80;;
8319;SDS011;4197;42.130;24.746;2023-12-20T10:11:07;16.13;;;12.53;;
8319;SDS011;4197;42.130;24.746;2023-12-20T10:13:39;16.67;;;12.10;;
8319;SDS011;4197;42.130;24.746;2023-12-20T10:16:09;17.30;;;13.23;;
8319;SDS011;4197;42.130;24.746;2023-12-20T10:18:37;22.43;;;13.77;;
8319;SDS011;4197;42.130;24.746;2023-12-20T10:21:06;22.27;;;13.27;;
8319;SDS011;4197;42.130;24.746;2023-12-20T10:23:37;18.50;;;13.37;;
8319;SDS011;4197;42.130;24.746;2023-12-20T10:26:06;21.47;;;13.40;;
8319;SDS011;4197;42.130;24.746;2023-12-20T10:28:36;17.63;;;12.93;;
8319;SDS011;4197;42.130;24.746;2023-12-20T10:31:05;19.47;;;13.00;;
8319;SDS011;4197;42.130;24.746;2023-12-20T10:33:35;20.80;;;13.40;;
8319;SDS011;4197;42.130;24.746;2023-12-20T10:36:04;20.27;;;14.40;;
8319;SDS011;4197;42.130;24.746;2023-12-20T10:38:34;17.87;;;14.23;;
8319;SDS011;4197;42.130;24.746;2023-12-20T10:41:05;20.77;;;13.23;;
8319;SDS011;4197;42.130;24.746;2023-12-20T10:43:36;19.57;;;14.47;;
8319;SDS011;4197;42.130;24.746;2023-12-20T10:46:05;21.90;;;13.67;;
8319;SDS011;4197;42.130;24.746;2023-12-20T10:48:36;18.33;;;13.57;;
8319;SDS011;4197;42.130;24.746;2023-12-20T10:51:07;21.50;;;12.17;;
8319;SDS011;4197;42.130;24.746;2023-12-20T10:53:36;13.47;;;9.97;;
8319;SDS011;4197;42.130;24.746;2023-12-20T10:56:07;14.57;;;11.10;;
8319;SDS011;4197;42.130;24.746;2023-12-20T10:58:37;14.77;;;11.10;;
8319;SDS011;4197;42.130;24.746;2023-12-20T11:01:09;16.53;;;12.07;;
8319;SDS011;4197;42.130;24.746;2023-12-20T11:03:43;17.23;;;13.27;;
8319;SDS011;4197;42.130;24.746;2023-12-20T11:06:16;14.87;;;11.60;;
8319;SDS011;4197;42.130;24.746;2023-12-20T11:08:55;16.90;;;12.63;;
8319;SDS011;4197;42.130;24.746;2023-12-20T11:11:38;17.17;;;12.70;;
8319;SDS011;4197;42.130;24.746;2023-12-20T11:14:17;16.53;;;12.83;;
8319;SDS011;4197;42.130;24.746;2023-12-20T11:16:49;14.43;;;11.27;;
8319;SDS011;4197;42.130;24.746;2023-12-20T11:19:22;15.23;;;11.97;;
8319;SDS011;4197;42.130;24.746;2023-12-20T11:21:51;17.40;;;12.40;;
8319;SDS011;4197;42.130;24.746;2023-12-20T11:24:21;19.23;;;12.03;;
8319;SDS011;4197;42.130;24.746;2023-12-20T11:26:51;17.73;;;12.47;;
8319;SDS011;4197;42.130;24.746;2023-12-20T11:29:30;19.17;;;12.73;;
8319;SDS011;4197;42.130;24.746;2023-12-20T11:32:00;23.30;;;11.87;;
8319;SDS011;4197;42.130;24.746;2023-12-20T11:34:32;18.60;;;12.13;;
8319;SDS011;4197;42.130;24.746;2023-12-20T11:37:03;21.17;;;11.73;;
8319;SDS011;4197;42.130;24.746;2023-12-20T11:39:32;20.93;;;12.17;;
8319;SDS011;4197;42.130;24.746;2023-12-20T11:42:04;21.63;;;11.77;;
8319;SDS011;4197;42.130;24.746;2023-12-20T11:44:34;19.47;;;11.70;;
8319;SDS011;4197;42.130;24.746;2023-12-20T11:47:04;15.97;;;10.70;;
8319;SDS011;4197;42.130;24.746;2023-12-20T11:49:34;21.87;;;11.67;;
8319;SDS011;4197;42.130;24.746;2023-12-20T11:52:03;21.70;;;11.50;;
8319;SDS011;4197;42.130;24.746;2023-12-20T11:54:31;18.93;;;10.80;;
8319;SDS011;4197;42.130;24.746;2023-12-20T11:57:00;21.47;;;11.57;;
8319;SDS011;4197;42.130;24.746;2023-12-20T11:59:28;20.53;;;11.40;;
8319;SDS011;4197;42.130;24.746;2023-12-20T12:01:59;24.83;;;11.77;;
8319;SDS011;4197;42.130;24.746;2023-12-20T12:04:28;20.33;;;12.07;;
8319;SDS011;4197;42.130;24.746;2023-12-20T12:06:58;22.10;;;12.23;;
8319;SDS011;4197;42.130;24.746;2023-12-20T12:09:26;27.70;;;13.97;;
8319;SDS011;4197;42.130;24.746;2023-12-20T12:11:55;23.47;;;13.30;;
8319;SDS011;4197;42.130;24.746;2023-12-20T12:14:23;23.00;;;12.70;;
8319;SDS011;4197;42.130;24.746;2023-12-20T12:16:52;20.27;;;13.57;;
8319;SDS011;4197;42.130;24.746;2023-12-20T12:19:21;27.63;;;12.90;;
8319;SDS011;4197;42.130;24.746;2023-12-20T12:21:50;30.40;;;13.43;;
8319;SDS011;4197;42.130;24.746;2023-12-20T12:24:21;26.40;;;13.87;;
8319;SDS011;4197;42.130;24.746;2023-12-20T12:26:50;31.70;;;16.10;;
8319;SDS011;4197;42.130;24.746;2023-12-20T12:29:19;27.27;;;14.67;;
8319;SDS011;4197;42.130;24.746;2023-12-20T12:31:50;38.87;;;16.93;;
8319;SDS011;4197;42.130;24.746;2023-12-20T12:34:18;38.53;;;16.53;;
8319;SDS011;4197;42.130;24.746;2023-12-20T12:36:47;39.73;;;17.33;;
8319;SDS011;4197;42.130;24.746;2023-12-20T12:39:17;37.60;;;17.27;;
8319;SDS011;4197;42.130;24.746;2023-12-20T12:41:47;24.73;;;15.20;;
8319;SDS011;4197;42.130;24.746;2023-12-20T12:44:15;23.70;;;13.83;;
8319;SDS011;4197;42.130;24.746;2023-12-20T12:46:44;20.90;;;12.60;;
8319;SDS011;4197;42.130;24.746;2023-12-20T12:49:13;26.40;;;13.80;;
8319;SDS011;4197;42.130;24.746;2023-12-20T12:51:42;23.80;;;13.07;;
8319;SDS011;4197;42.130;24.746;2023-12-20T12:54:11;43.63;;;16.80;;
8319;SDS011;4197;42.130;24.746;2023-12-20T12:56:42;32.47;;;14.37;;
8319;SDS011;4197;42.130;24.746;2023-12-20T12:59:12;25.50;;;15.07;;
8319;SDS011;4197;42.130;24.746;2023-12-20T13:01:41;28.10;;;15.13;;
8319;SDS011;4197;42.130;24.746;2023-12-20T13:04:09;24.10;;;14.07;;
8319;SDS011;4197;42.130;24.746;2023-12-20T13:06:38;27.27;;;14.07;;
8319;SDS011;4197;42.130;24.746;2023-12-20T13:09:07;22.47;;;13.83;;
8319;SDS011;4197;42.130;24.746;2023-12-20T13:11:37;26.67;;;13.70;;
8319;SDS011;4197;42.130;24.746;2023-12-20T13:14:06;20.37;;;13.80;;
8319;SDS011;4197;42.130;24.746;2023-12-20T13:16:38;26.07;;;14.17;;
8319;SDS011;4197;42.130;24.746;2023-12-20T13:19:07;24.77;;;15.17;;
8319;SDS011;4197;42.130;24.746;2023-12-20T13:21:36;28.47;;;14.77;;
8319;SDS011;4197;42.130;24.746;2023-12-20T13:24:06;23.10;;;15.07;;
8319;SDS011;4197;42.130;24.746;2023-12-20T13:26:34;22.77;;;14.33;;
8319;SDS011;4197;42.130;24.746;2023-12-20T13:29:03;27.20;;;15.43;;
8319;SDS011;4197;42.130;24.746;2023-12-20T13:34:20;30.67;;;16.07;;
8319;SDS011;4197;42.130;24.746;2023-12-20T13:36:48;34.17;;;18.97;;
8319;SDS011;4197;42.130;24.746;2023-12-20T13:39:17;29.00;;;18.80;;
8319;SDS011;4197;42.130;24.746;2023-12-20T13:41:45;40.20;;;20.30;;
8319;SDS011;4197;42.130;24.746;2023-12-20T13:44:14;38.97;;;20.63;;
8319;SDS011;4197;42.130;24.746;2023-12-20T13:46:42;35.73;;;21.63;;
8319;SDS011;4197;42.130;24.746;2023-12-20T13:49:13;37.20;;;22.30;;
8319;SDS011;4197;42.130;24.746;2023-12-20T13:51:42;38.13;;;20.87;;
8319;SDS011;4197;42.130;24.746;2023-12-20T13:54:10;31.17;;;20.17;;
8319;SDS011;4197;42.130;24.746;2023-12-20T13:56:39;35.20;;;20.40;;
8319;SDS011;4197;42.130;24.746;2023-12-20T13:59:22;40.33;;;21.57;;
8319;SDS011;4197;42.130;24.746;2023-12-20T14:01:51;30.03;;;20.20;;
8319;SDS011;4197;42.130;24.746;2023-12-20T14:04:21;33.93;;;20.83;;
8319;SDS011;4197;42.130;24.746;2023-12-20T14:07:08;35.97;;;20.97;;
8319;SDS011;4197;42.130;24.746;2023-12-20T14:09:39;35.00;;;22.97;;
8319;SDS011;4197;42.130;24.746;2023-12-20T14:12:12;36.47;;;22.23;;
8319;SDS011;4197;42.130;24.746;2023-12-20T14:14:41;39.17;;;23.87;;
8319;SDS011;4197;42.130;24.746;2023-12-20T14:17:11;33.27;;;22.13;;
8319;SDS011;4197;42.130;24.746;2023-12-20T14:19:41;67.53;;;26.73;;
8319;SDS011;4197;42.130;24.746;2023-12-20T14:22:09;52.83;;;24.73;;
8319;SDS011;4197;42.130;24.746;2023-12-20T14:24:38;42.37;;;25.60;;
8319;SDS011;4197;42.130;24.746;2023-12-20T14:27:06;44.07;;;23.37;;
8319;SDS011;4197;42.130;24.746;2023-12-20T14:29:35;37.27;;;22.80;;
8319;SDS011;4197;42.130;24.746;2023-12-20T14:32:04;43.50;;;22.10;;
8319;SDS011;4197;42.130;24.746;2023-12-20T14:34:33;38.17;;;22.90;;
8319;SDS011;4197;42.130;24.746;2023-12-20T14:37:03;41.07;;;23.10;;
8319;SDS011;4197;42.130;24.746;2023-12-20T14:39:32;49.27;;;27.23;;
8319;SDS011;4197;42.130;24.746;2023-12-20T14:42:00;52.63;;;25.73;;
8319;SDS011;4197;42.130;24.746;2023-12-20T14:44:29;53.93;;;26.50;;
8319;SDS011;4197;42.130;24.746;2023-12-20T14:46:57;48.87;;;26.93;;
8319;SDS011;4197;42.130;24.746;2023-12-20T14:49:28;48.80;;;25.90;;